createdAt,value
2023-04-14T00:01:02.494Z,100152.41
2023-04-14T00:03:28.859Z,100138.56
2023-04-14T00:05:55.261Z,100122.31
2023-04-14T00:08:21.487Z,100132.38
2023-04-14T00:10:47.707Z,100143.75
2023-04-14T00:13:13.926Z,100142.75
2023-04-14T00:15:40.433Z,100121.88
2023-04-14T00:18:06.671Z,100122.88
2023-04-14T00:20:32.908Z,100125.91
2023-04-14T00:22:59.106Z,100125.13
2023-04-14T00:25:25.330Z,100123.53
2023-04-14T00:27:51.551Z,100129.84
2023-04-14T00:30:17.784Z,100136.38
2023-04-14T00:32:44.097Z,100132.22
2023-04-14T00:35:10.342Z,100122.28
2023-04-14T00:37:36.571Z,100149.41
2023-04-14T00:40:02.815Z,100170.06
2023-04-14T00:42:29.039Z,100171.41
2023-04-14T00:44:55.239Z,100179.75
2023-04-14T00:47:21.462Z,100181.91
2023-04-14T00:49:47.683Z,100178.88
2023-04-14T00:52:13.927Z,100174.72
2023-04-14T00:54:40.149Z,100162.53
2023-04-14T00:57:06.364Z,100151.38
2023-04-14T00:59:32.684Z,100139.88
2023-04-14T01:01:59.019Z,100128.94
2023-04-14T01:04:31.322Z,100138.97
2023-04-14T01:07:06.933Z,100127.47
2023-04-14T01:09:33.135Z,100130.50
2023-04-14T01:12:05.507Z,100145.84
2023-04-14T01:14:41.655Z,100142.34
2023-04-14T01:17:09.414Z,100165.78
2023-04-14T01:19:57.420Z,100180.34
2023-04-14T01:22:23.628Z,100173.66
2023-04-14T01:25:00.367Z,100167.34
2023-04-14T01:27:32.335Z,100163.19
2023-04-14T01:29:58.478Z,100223.19
2023-04-14T01:32:24.717Z,100254.84
2023-04-14T01:34:51.645Z,100263.84
2023-04-14T01:37:18.988Z,100295.34
2023-04-14T01:39:48.783Z,100311.56
2023-04-14T01:42:15.602Z,100294.50
2023-04-14T01:44:41.825Z,100261.38
2023-04-14T01:47:08.687Z,100247.78
2023-04-14T01:49:35.467Z,100224.22
2023-04-14T01:52:01.997Z,100216.44
2023-04-14T01:54:28.203Z,100205.66
2023-04-14T01:56:54.410Z,100188.50
2023-04-14T01:59:20.606Z,100181.38
2023-04-14T02:01:46.924Z,100202.03
2023-04-14T02:04:13.205Z,100244.75
2023-04-14T02:06:39.446Z,100246.06
2023-04-14T02:09:05.650Z,100235.25
2023-04-14T02:11:31.891Z,100228.00
2023-04-14T02:13:58.097Z,100215.66
2023-04-14T02:16:24.329Z,100208.69
2023-04-14T02:18:50.556Z,100196.50
2023-04-14T02:21:17.134Z,100190.53
2023-04-14T02:23:43.343Z,100168.53
2023-04-14T02:26:19.924Z,100173.94
2023-04-14T02:28:48.819Z,100166.25
2023-04-14T02:31:15.069Z,100181.53
2023-04-14T02:33:41.299Z,100184.38
2023-04-14T02:36:16.062Z,100182.00
2023-04-14T02:38:44.150Z,100186.41
2023-04-14T02:41:20.681Z,100183.25
2023-04-14T02:44:07.110Z,100180.31
2023-04-14T02:46:35.014Z,100184.13
2023-04-14T02:49:01.432Z,100191.88
2023-04-14T02:51:27.998Z,100185.13
2023-04-14T02:53:54.211Z,100167.16
2023-04-14T02:56:20.424Z,100199.59
2023-04-14T02:58:46.624Z,100210.59
2023-04-14T03:01:12.868Z,100216.66
2023-04-14T03:03:39.099Z,100229.25
2023-04-14T03:06:06.158Z,100227.06
2023-04-14T03:08:32.803Z,100229.66
2023-04-14T03:10:59.009Z,100239.22
2023-04-14T03:13:25.531Z,100226.47
2023-04-14T03:15:51.889Z,100221.72
2023-04-14T03:18:18.152Z,100216.22
2023-04-14T03:20:44.383Z,100206.53
2023-04-14T03:23:10.574Z,100218.38
2023-04-14T03:25:36.788Z,100235.69
2023-04-14T03:28:03.982Z,100243.56
2023-04-14T03:30:30.196Z,100242.56
2023-04-14T03:32:57.479Z,100242.56
2023-04-14T03:35:23.744Z,100209.72
2023-04-14T03:37:49.975Z,100194.84
2023-04-14T03:40:16.179Z,100176.03
2023-04-14T03:42:42.474Z,100168.66
2023-04-14T03:45:08.948Z,100168.00
2023-04-14T03:47:35.185Z,100191.28
2023-04-14T03:50:01.680Z,100204.78
2023-04-14T03:52:34.205Z,100210.56
2023-04-14T03:55:00.805Z,100219.72
2023-04-14T03:57:27.019Z,100213.53
2023-04-14T03:59:53.228Z,100197.03
2023-04-14T04:02:21.323Z,100193.66
2023-04-14T04:04:47.673Z,100185.50
2023-04-14T04:07:14.043Z,100222.66
2023-04-14T04:09:40.262Z,100244.06
2023-04-14T04:12:06.680Z,100247.97
2023-04-14T04:14:32.906Z,100230.59
2023-04-14T04:16:59.682Z,100245.81
2023-04-14T04:19:25.918Z,100243.59
2023-04-14T04:21:52.834Z,100226.31
2023-04-14T04:24:19.634Z,100214.63
2023-04-14T04:26:45.869Z,100207.44
2023-04-14T04:29:12.096Z,100221.13
2023-04-14T04:31:39.172Z,100195.06
2023-04-14T04:34:05.433Z,100179.53
2023-04-14T04:36:31.695Z,100159.28
2023-04-14T04:38:57.929Z,100160.44
2023-04-14T04:41:26.155Z,100175.16
2023-04-14T04:43:52.383Z,100164.00
2023-04-14T04:46:18.610Z,100168.22
2023-04-14T04:48:44.849Z,100171.31
2023-04-14T04:51:11.099Z,100193.47
2023-04-14T04:53:37.305Z,100209.50
2023-04-14T04:56:03.595Z,100221.84
2023-04-14T04:58:29.795Z,100232.53
2023-04-14T05:00:56.008Z,100227.69
2023-04-14T05:03:22.341Z,100210.94
2023-04-14T05:05:48.658Z,100218.13
2023-04-14T05:08:15.891Z,100214.66
2023-04-14T05:10:42.093Z,100193.53
2023-04-14T05:13:08.404Z,100173.22
2023-04-14T05:15:34.638Z,100165.59
2023-04-14T05:18:00.914Z,100157.38
2023-04-14T05:20:27.118Z,100160.72
2023-04-14T05:22:53.387Z,100142.59
2023-04-14T05:25:19.618Z,100128.63
2023-04-14T05:27:45.843Z,100130.25
2023-04-14T05:30:12.343Z,100138.47
2023-04-14T05:32:38.619Z,100150.28
2023-04-14T05:35:04.973Z,100168.88
2023-04-14T05:37:31.203Z,100229.97
2023-04-14T05:39:57.419Z,100256.31
2023-04-14T05:45:03.956Z,100253.75
2023-04-14T05:47:30.229Z,100298.19
2023-04-14T05:49:56.456Z,100319.88
2023-04-14T05:52:22.697Z,100331.72
2023-04-14T05:54:53.021Z,100364.84
2023-04-14T05:57:19.259Z,100367.41
2023-04-14T05:59:45.471Z,100382.16
2023-04-14T06:02:11.760Z,100391.53
2023-04-14T06:04:38.184Z,100405.03
2023-04-14T06:07:04.513Z,100422.34
2023-04-14T06:09:30.741Z,100422.75
2023-04-14T06:11:56.996Z,100421.84
2023-04-14T06:14:23.227Z,100417.50
2023-04-14T06:16:49.526Z,100386.84
2023-04-14T06:19:15.780Z,100367.44
2023-04-14T06:21:42.022Z,100351.31
2023-04-14T06:24:08.225Z,100326.78
2023-04-14T06:26:44.699Z,100300.28
2023-04-14T06:29:10.912Z,100280.59
2023-04-14T06:31:37.149Z,100262.34
2023-04-14T06:34:03.383Z,100248.78
2023-04-14T06:36:35.918Z,100228.72
2023-04-14T06:39:03.370Z,100214.81
2023-04-14T06:41:29.797Z,100199.00
2023-04-14T06:43:56.014Z,100189.53
2023-04-14T06:46:22.392Z,100169.88
2023-04-14T06:48:48.622Z,100173.13
2023-04-14T06:51:14.839Z,100157.31
2023-04-14T06:53:41.043Z,100145.56
2023-04-14T06:56:07.441Z,100136.50
2023-04-14T06:58:33.748Z,100132.22
2023-04-14T07:01:00.400Z,100126.41
2023-04-14T07:03:26.874Z,100119.97
2023-04-14T07:05:53.180Z,100113.47
2023-04-14T07:08:19.555Z,100108.44
2023-04-14T07:10:45.899Z,100103.09
2023-04-14T07:13:12.149Z,100104.66
2023-04-14T07:15:38.410Z,100100.41
2023-04-14T07:18:04.667Z,100091.66
2023-04-14T07:20:30.922Z,100092.19
2023-04-14T07:22:57.147Z,100077.34
2023-04-14T07:25:23.371Z,100083.59
2023-04-14T07:28:02.161Z,100083.59
2023-04-14T07:30:29.605Z,100084.56
2023-04-14T07:32:56.857Z,100079.94
2023-04-14T07:35:24.438Z,100081.31
2023-04-14T07:37:50.662Z,100069.91
2023-04-14T07:40:16.868Z,100068.38
2023-04-14T07:42:43.099Z,100069.69
2023-04-14T07:45:09.692Z,100071.94
2023-04-14T07:47:35.968Z,100070.13
2023-04-14T07:50:02.213Z,100074.09
2023-04-14T07:52:28.432Z,100074.94
2023-04-14T07:54:54.630Z,100074.78
2023-04-14T07:57:21.014Z,100072.66
2023-04-14T07:59:47.227Z,100074.06
2023-04-14T08:02:13.534Z,100060.25
2023-04-14T08:04:39.803Z,100060.84
2023-04-14T08:07:06.032Z,100058.63
2023-04-14T08:09:32.243Z,100054.50
2023-04-14T08:11:58.465Z,100053.69
2023-04-14T08:14:24.692Z,100041.47
2023-04-14T08:16:51.094Z,100048.03
2023-04-14T08:19:17.317Z,100039.44
2023-04-14T08:21:43.534Z,100046.06
2023-04-14T08:24:09.751Z,100057.88
2023-04-14T08:26:35.958Z,100051.06
2023-04-14T08:29:02.621Z,100057.41
2023-04-14T08:31:29.241Z,100051.53
2023-04-14T08:33:55.523Z,100042.91
2023-04-14T08:36:21.729Z,100035.41
2023-04-14T08:38:47.973Z,100024.34
2023-04-14T08:41:14.210Z,100027.59
2023-04-14T08:43:40.416Z,100037.88
2023-04-14T08:46:06.697Z,100049.13
2023-04-14T08:48:32.948Z,100043.59
2023-04-14T08:50:59.124Z,100024.06
2023-04-14T08:53:25.338Z,100035.06
2023-04-14T08:55:51.570Z,100049.94
2023-04-14T08:58:17.774Z,100081.75
2023-04-14T09:00:44.006Z,100100.66
2023-04-14T09:03:10.931Z,100110.97
2023-04-14T09:05:37.491Z,100123.44
2023-04-14T09:08:03.816Z,100132.53
2023-04-14T09:10:30.014Z,100149.03
2023-04-14T09:12:56.236Z,100160.81
2023-04-14T09:15:22.440Z,100163.81
2023-04-14T09:17:48.742Z,100168.31
2023-04-14T09:20:37.370Z,100171.91
2023-04-14T09:23:01.210Z,100170.38
2023-04-14T09:25:27.437Z,100169.16
2023-04-14T09:27:53.669Z,100163.56
2023-04-14T09:30:19.911Z,100165.16
2023-04-14T09:32:46.143Z,100168.69
2023-04-14T09:35:12.370Z,100162.88
2023-04-14T09:37:42.263Z,100150.56
2023-04-14T09:40:08.708Z,100155.53
2023-04-14T09:42:38.142Z,100157.75
2023-04-14T09:45:04.529Z,100149.28
2023-04-14T09:47:30.854Z,100137.63
2023-04-14T09:49:57.727Z,100123.47
2023-04-14T09:52:26.545Z,100123.72
2023-04-14T09:54:54.622Z,100114.63
2023-04-14T09:57:26.841Z,100118.22
2023-04-14T09:59:53.045Z,100119.13
2023-04-14T10:02:19.413Z,100120.41
2023-04-14T10:04:45.736Z,100101.38
2023-04-14T10:07:11.978Z,100094.88
2023-04-14T10:09:38.183Z,100099.63
2023-04-14T10:12:09.750Z,100101.22
2023-04-14T10:14:36.459Z,100099.91
2023-04-14T10:17:02.675Z,100102.00
2023-04-14T10:19:29.138Z,100088.91
2023-04-14T10:21:55.401Z,100092.00
2023-04-14T10:24:21.607Z,100088.91
2023-04-14T10:26:47.873Z,100079.81
2023-04-14T10:29:14.074Z,100082.38
2023-04-14T10:31:40.362Z,100076.91
2023-04-14T10:34:15.805Z,100073.25
2023-04-14T10:36:42.265Z,100069.09
2023-04-14T10:39:08.529Z,100056.63
2023-04-14T10:41:43.856Z,100041.59
2023-04-14T10:44:29.052Z,100021.03
2023-04-14T10:46:55.719Z,100002.03
2023-04-14T10:49:24.004Z,99986.94
2023-04-14T10:51:50.253Z,99970.84
2023-04-14T10:54:16.780Z,99957.84
2023-04-14T10:56:43.648Z,99972.09
2023-04-14T10:59:09.860Z,99971.31
2023-04-14T11:01:36.251Z,99971.56
2023-04-14T11:04:16.646Z,99964.59
2023-04-14T11:06:45.968Z,99966.94
2023-04-14T11:09:41.268Z,99962.56
2023-04-14T11:12:25.830Z,99953.00
2023-04-14T11:14:55.611Z,99953.25
2023-04-14T11:17:21.995Z,99955.06
2023-04-14T11:19:48.317Z,99953.75
2023-04-14T11:22:14.540Z,99958.13
2023-04-14T11:24:40.951Z,99961.72
2023-04-14T11:27:07.880Z,99968.56
2023-04-14T11:29:34.072Z,99969.59
2023-04-14T11:32:01.117Z,99963.34
2023-04-14T11:34:27.331Z,99960.44
2023-04-14T11:36:54.154Z,99966.66
2023-04-14T11:39:20.377Z,99976.91
2023-04-14T11:41:46.695Z,99973.06
2023-04-14T11:44:16.656Z,99978.78
2023-04-14T11:46:42.926Z,99975.63
2023-04-14T11:49:09.176Z,99981.69
2023-04-14T11:51:35.448Z,99982.50
2023-04-14T11:54:01.659Z,99986.53
2023-04-14T11:56:27.871Z,99992.25
2023-04-14T11:59:00.951Z,99986.28
2023-04-14T12:01:28.155Z,99988.38
2023-04-14T12:03:54.487Z,99983.50
2023-04-14T12:06:20.791Z,99987.97
2023-04-14T12:08:53.610Z,99985.09
2023-04-14T12:11:19.864Z,99983.97
2023-04-14T12:13:46.324Z,99979.84
2023-04-14T12:16:12.862Z,99976.22
2023-04-14T12:18:39.187Z,99976.91
2023-04-14T12:21:07.299Z,99982.63
2023-04-14T12:23:36.043Z,99974.69
2023-04-14T12:26:02.350Z,99968.50
2023-04-14T12:28:28.684Z,99965.84
2023-04-14T12:31:01.771Z,99965.41
2023-04-14T12:33:28.514Z,99971.56
2023-04-14T12:36:03.337Z,99979.06
2023-04-14T12:38:29.537Z,99980.53
2023-04-14T12:40:55.809Z,99984.16
2023-04-14T12:43:28.669Z,99987.88
2023-04-14T12:45:54.879Z,99989.69
2023-04-14T12:48:21.088Z,99993.06
2023-04-14T12:50:47.357Z,99991.56
2023-04-14T12:53:23.194Z,99990.25
2023-04-14T12:56:02.923Z,99990.72
2023-04-14T12:58:29.235Z,99989.97
2023-04-14T13:00:55.445Z,99989.97
2023-04-14T13:03:21.779Z,99986.13
2023-04-14T13:05:48.227Z,99995.75
2023-04-14T13:08:14.431Z,99986.06
2023-04-14T13:10:40.656Z,99984.50
2023-04-14T13:13:06.869Z,99980.25
2023-04-14T13:16:13.741Z,99983.81
2023-04-14T13:18:19.323Z,99979.44
2023-04-14T13:20:52.145Z,99980.13
2023-04-14T13:23:18.356Z,99974.50
2023-04-14T13:25:44.597Z,99966.44
2023-04-14T13:28:10.816Z,99966.56
2023-04-14T13:30:39.353Z,99959.53
2023-04-14T13:33:05.605Z,99965.38
2023-04-14T13:35:31.832Z,99957.94
2023-04-14T13:37:58.057Z,99955.34
2023-04-14T13:40:24.264Z,99954.84
2023-04-14T13:42:50.478Z,99943.84
2023-04-14T13:45:16.759Z,99941.78
2023-04-14T13:47:46.426Z,99939.34
2023-04-14T13:50:12.663Z,99946.78
2023-04-14T13:52:38.883Z,99939.78
2023-04-14T13:55:05.248Z,99935.94
2023-04-14T13:57:31.458Z,99933.41
2023-04-14T13:59:57.657Z,99930.81
2023-04-14T14:02:24.161Z,99936.25
2023-04-14T14:04:50.585Z,99929.53
2023-04-14T14:07:16.809Z,99915.75
2023-04-14T14:09:43.019Z,99925.06
2023-04-14T14:12:10.514Z,99924.31
2023-04-14T14:14:36.707Z,99924.03
2023-04-14T14:17:02.939Z,99913.69
2023-04-14T14:19:29.187Z,99923.75
2023-04-14T14:21:55.390Z,99910.44
2023-04-14T14:24:21.628Z,99915.22
2023-04-14T14:26:47.848Z,99912.16
2023-04-14T14:29:14.069Z,99904.41
2023-04-14T14:31:40.324Z,99904.47
2023-04-14T14:34:06.997Z,99899.09
2023-04-14T14:36:33.230Z,99901.47
2023-04-14T14:38:59.474Z,99908.78
2023-04-14T14:41:25.719Z,99904.84
2023-04-14T14:43:51.930Z,99891.44
2023-04-14T14:46:18.184Z,99897.03
2023-04-14T14:48:44.516Z,99898.97
2023-04-14T14:51:10.726Z,99886.97
2023-04-14T14:53:36.888Z,99893.25
2023-04-14T14:56:03.104Z,99883.88
2023-04-14T14:58:29.333Z,99883.09
2023-04-14T15:00:55.536Z,99877.06
2023-04-14T15:03:21.841Z,99876.25
2023-04-14T15:05:48.529Z,99879.66
2023-04-14T15:08:14.754Z,99885.31
2023-04-14T15:10:43.926Z,99878.38
2023-04-14T15:13:10.150Z,99886.66
2023-04-14T15:15:36.365Z,99889.72
2023-04-14T15:18:02.631Z,99888.84
2023-04-14T15:20:28.861Z,99886.47
2023-04-14T15:22:55.079Z,99890.56
2023-04-14T15:25:21.289Z,99889.13
2023-04-14T15:27:47.510Z,99884.09
2023-04-14T15:30:14.567Z,99885.69
2023-04-14T15:32:40.901Z,99889.28
2023-04-14T15:35:07.341Z,99891.41
2023-04-14T15:37:33.546Z,99893.16
2023-04-14T15:39:59.828Z,99897.84
2023-04-14T15:42:26.063Z,99888.81
2023-04-14T15:44:52.433Z,99891.34
2023-04-14T15:47:18.637Z,99891.66
2023-04-14T15:49:48.238Z,99896.28
2023-04-14T15:52:16.256Z,99883.81
2023-04-14T15:54:42.450Z,99882.22
2023-04-14T15:57:08.647Z,99880.44
2023-04-14T15:59:34.854Z,99872.28
2023-04-14T16:02:01.128Z,99870.41
2023-04-14T16:04:27.579Z,99859.78
2023-04-14T16:06:53.995Z,99862.16
2023-04-14T16:09:20.206Z,99862.59
2023-04-14T16:11:46.467Z,99857.41
2023-04-14T16:14:12.672Z,99856.41
2023-04-14T16:16:38.890Z,99847.38
2023-04-14T16:19:05.173Z,99833.84
2023-04-14T16:21:31.365Z,99822.31
2023-04-14T16:23:57.588Z,99834.34
2023-04-14T16:26:23.786Z,99835.59
2023-04-14T16:28:49.997Z,99832.69
2023-04-14T16:31:16.215Z,99830.41
2023-04-14T16:33:42.493Z,99824.09
2023-04-14T16:36:08.704Z,99823.31
2023-04-14T16:38:34.936Z,99814.06
2023-04-14T16:41:01.242Z,99810.91
2023-04-14T16:43:27.452Z,99811.94
2023-04-14T16:45:54.049Z,99804.94
2023-04-14T16:48:20.311Z,99797.69
2023-04-14T16:50:46.527Z,99787.31
2023-04-14T16:53:13.044Z,99785.97
2023-04-14T16:55:39.397Z,99776.03
2023-04-14T16:58:05.608Z,99773.31
2023-04-14T17:00:31.798Z,99761.06
2023-04-14T17:02:58.171Z,99755.16
2023-04-14T17:05:24.491Z,99748.66
2023-04-14T17:07:50.677Z,99741.66
2023-04-14T17:10:16.885Z,99723.50
2023-04-14T17:12:43.077Z,99709.38
2023-04-14T17:15:09.620Z,99703.19
2023-04-14T17:17:35.854Z,99693.03
2023-04-14T17:20:02.664Z,99687.06
2023-04-14T17:22:28.871Z,99686.28
2023-04-14T17:24:55.078Z,99674.34
2023-04-14T17:27:21.279Z,99665.00
2023-04-14T17:29:47.504Z,99661.63
2023-04-14T17:32:13.860Z,99661.31
2023-04-14T17:34:40.087Z,99642.06
2023-04-14T17:37:06.286Z,99644.44
2023-04-14T17:39:32.534Z,99642.28
2023-04-14T17:41:58.745Z,99631.34
2023-04-14T17:44:31.708Z,99627.19
2023-04-14T17:46:58.079Z,99604.91
2023-04-14T17:49:24.309Z,99606.72
2023-04-14T17:51:50.513Z,99595.28
2023-04-14T17:54:16.728Z,99578.97
2023-04-14T17:56:42.922Z,99568.59
2023-04-14T17:59:09.134Z,99545.75
2023-04-14T18:01:35.435Z,99533.31
2023-04-14T18:04:01.837Z,99512.31
2023-04-14T18:06:28.156Z,99485.34
2023-04-14T18:08:54.354Z,99469.00
2023-04-14T18:11:20.561Z,99443.34
2023-04-14T18:13:46.763Z,99424.94
2023-04-14T18:16:12.960Z,99404.72
2023-04-14T18:18:39.180Z,99382.94
2023-04-14T18:21:05.579Z,99356.47
2023-04-14T18:23:31.845Z,99345.06
2023-04-14T18:28:27.945Z,99306.19
2023-04-14T18:30:54.482Z,99282.84
2023-04-14T18:33:20.911Z,99257.69
2023-04-14T18:35:50.458Z,99238.53
2023-04-14T18:38:16.695Z,99209.22
2023-04-14T18:40:42.928Z,99193.38
2023-04-14T18:43:09.133Z,99169.31
2023-04-14T18:45:35.336Z,99137.91
2023-04-14T18:48:01.592Z,99123.66
2023-04-14T18:50:28.320Z,99095.16
2023-04-14T18:52:54.532Z,99073.63
2023-04-14T18:55:20.722Z,99062.78
2023-04-14T18:57:46.944Z,99046.72
2023-04-14T19:00:13.248Z,99034.00
2023-04-14T19:02:39.758Z,99015.59
2023-04-14T19:05:06.344Z,98993.56
2023-04-14T19:07:32.590Z,98968.69
2023-04-14T19:09:58.791Z,98952.88
2023-04-14T19:12:28.383Z,98944.31
2023-04-14T19:14:55.184Z,98914.75
2023-04-14T19:17:21.406Z,98899.16
2023-04-14T19:19:47.604Z,98881.56
2023-04-14T19:22:13.828Z,98856.91
2023-04-14T19:24:40.021Z,98835.38
2023-04-14T19:27:06.231Z,98819.81
2023-04-14T19:29:32.441Z,98794.91
2023-04-14T19:31:58.680Z,98774.69
2023-04-14T19:34:24.891Z,98756.31
2023-04-14T19:36:51.099Z,98736.59
2023-04-14T19:39:17.289Z,98717.41
2023-04-14T19:41:43.492Z,98695.34
2023-04-14T19:44:09.686Z,98676.41
2023-04-14T19:46:36.009Z,98659.81
2023-04-14T19:49:02.597Z,98647.59
2023-04-14T19:51:29.329Z,98629.97
2023-04-14T19:53:55.540Z,98617.25
2023-04-14T19:56:21.745Z,98595.22
2023-04-14T19:58:47.951Z,98586.41
2023-04-14T20:01:14.197Z,98577.06
2023-04-14T20:03:40.521Z,98573.44
2023-04-14T20:06:26.610Z,98567.22
2023-04-14T20:08:52.806Z,98541.53
2023-04-14T20:11:19.396Z,98543.63
2023-04-14T20:13:45.620Z,98524.69
2023-04-14T20:16:11.907Z,98497.72
2023-04-14T20:18:38.155Z,98474.38
2023-04-14T20:21:04.359Z,98460.63
2023-04-14T20:23:30.574Z,98440.38
2023-04-14T20:25:56.800Z,98420.88
2023-04-14T20:28:23.162Z,98403.50
2023-04-14T20:30:52.859Z,98377.03
2023-04-14T20:33:19.122Z,98364.81
2023-04-14T20:35:45.379Z,98351.84
2023-04-14T20:38:13.275Z,98336.03
2023-04-14T20:40:40.864Z,98328.50
2023-04-14T20:43:07.104Z,98312.66
2023-04-14T20:45:33.541Z,98302.06
2023-04-14T20:47:59.859Z,98293.47
2023-04-14T20:50:26.104Z,98271.94
2023-04-14T20:52:52.331Z,98267.81
2023-04-14T20:55:18.553Z,98263.41
2023-04-14T20:57:44.868Z,98253.00
2023-04-14T21:00:11.477Z,98245.75
2023-04-14T21:02:37.942Z,98232.25
2023-04-14T21:05:04.459Z,98227.59
2023-04-14T21:07:30.671Z,98216.47
2023-04-14T21:09:56.873Z,98214.66
2023-04-14T21:12:23.082Z,98219.56
2023-04-14T21:15:40.713Z,98222.94
2023-04-14T21:17:38.527Z,98206.00
2023-04-14T21:20:04.992Z,98202.34
2023-04-14T21:22:31.382Z,98190.94
2023-04-14T21:24:57.596Z,98202.69
2023-04-14T21:27:23.815Z,98202.16
2023-04-14T21:29:50.014Z,98219.81
2023-04-14T21:32:16.218Z,98222.94
2023-04-14T21:34:42.416Z,98233.28
2023-04-14T21:37:08.692Z,98241.84
2023-04-14T21:39:34.903Z,98260.00
2023-04-14T21:42:01.139Z,98245.13
2023-04-14T21:44:27.437Z,98245.22
2023-04-14T21:46:54.008Z,98248.09
2023-04-14T21:49:20.199Z,98247.06
2023-04-14T21:51:46.427Z,98230.72
2023-04-14T21:54:12.660Z,98217.47
2023-04-14T21:56:38.924Z,98209.47
2023-04-14T21:59:05.151Z,98185.34
2023-04-14T22:01:31.404Z,98197.38
2023-04-14T22:03:57.720Z,98191.59
2023-04-14T22:06:24.110Z,98184.41
2023-04-14T22:08:50.455Z,98181.81
2023-04-14T22:11:17.120Z,98187.19
2023-04-14T22:13:43.352Z,98173.44
2023-04-14T22:16:09.581Z,98177.84
2023-04-14T22:18:35.906Z,98172.47
2023-04-14T22:21:02.178Z,98179.41
2023-04-14T22:23:28.435Z,98181.22
2023-04-14T22:25:54.625Z,98186.69
2023-04-14T22:28:20.829Z,98188.22
2023-04-14T22:30:47.094Z,98200.91
2023-04-14T22:33:13.350Z,98215.44
2023-04-14T22:35:39.555Z,98226.84
2023-04-14T22:38:05.771Z,98218.69
2023-04-14T22:40:32.008Z,98210.84
2023-04-14T22:42:58.213Z,98202.31
2023-04-14T22:45:24.442Z,98190.09
2023-04-14T22:47:50.727Z,98175.03
2023-04-14T22:50:16.926Z,98184.97
2023-04-14T22:52:43.143Z,98204.75
2023-04-14T22:55:09.397Z,98210.41
2023-04-14T22:57:35.604Z,98207.00
2023-04-14T23:00:01.825Z,98206.72
2023-04-14T23:02:28.189Z,98224.09
2023-04-14T23:04:54.528Z,98232.66
2023-04-14T23:07:20.750Z,98226.66
2023-04-14T23:09:49.996Z,98232.38
2023-04-14T23:12:16.205Z,98253.41
2023-04-14T23:14:42.458Z,98246.34
2023-04-14T23:17:08.754Z,98237.06
2023-04-14T23:19:34.987Z,98235.97
2023-04-14T23:22:01.195Z,98222.53
2023-04-14T23:24:27.404Z,98215.72
2023-04-14T23:26:53.636Z,98182.91
2023-04-14T23:29:19.842Z,98179.19
2023-04-14T23:31:46.315Z,98166.00
2023-04-14T23:34:12.615Z,98145.53
2023-04-14T23:36:38.930Z,98134.44
2023-04-14T23:39:05.157Z,98122.03
2023-04-14T23:41:31.394Z,98105.97
2023-04-14T23:43:57.585Z,98090.69
2023-04-14T23:46:24.381Z,98078.53
2023-04-14T23:48:50.729Z,98069.22
2023-04-14T23:51:21.896Z,98062.00
2023-04-14T23:53:48.598Z,98047.31
2023-04-14T23:56:14.825Z,98023.22
2023-04-14T23:58:41.604Z,98001.50
